Time;durP1;ratioP1;P1;durP2;ratioP2;P2;SDS_P1;SDS_P2;PMS_P1;PMS_P2;Temp;Humidity;BMP_temperature;BMP_pressure;BME280_temperature;BME280_humidity;BME280_pressure;Samples;Min_cycle;Max_cycle;Signal;HPM_P1;HPM_P2
2021/12/02 00:00:05;;;;;;;;;;;;;;;-0.06;59.55;99232.15;1715933;84;20232;-58
2021/12/02 00:02:36;;;;;;;;;;;;;;;-0.02;59.08;99220.06;1716586;83;20148;-59
2021/12/02 00:05:05;;;;;;;;;;;;;;;-0.01;58.97;99222.25;1716915;83;20486;-59
2021/12/02 00:07:33;;;;;;;;;;;;;;;0.00;58.63;99221.28;1746125;82;20218;-58
2021/12/02 00:10:04;;;;;;;;;;;;;;;-0.03;58.51;99229.14;1746266;82;20146;-58
2021/12/02 00:12:33;;;;;;;;;;;;;;;-0.02;58.71;99222.75;1746061;82;20166;-58
2021/12/02 00:15:07;;;;;;;;;;;;;;;0.01;58.62;99219.43;1746223;82;20166;-59
2021/12/02 00:17:34;;;;;;;;;;;;;;;-0.01;58.66;99212.33;1746090;82;20189;-59
2021/12/02 00:23:11;;;;;;;;;;;;;;;0.07;59.00;99213.41;1746007;82;20213;-58
2021/12/02 00:25:40;;;;;;;;;;;;;;;0.10;58.77;99222.01;1746207;82;20201;-60
2021/12/02 00:28:08;;;;;;;;;;;;;;;0.06;58.71;99216.59;1717417;82;20510;-58
2021/12/02 00:30:37;;;;;;;;;;;;;;;0.05;58.89;99220.30;1717029;82;20154;-58
2021/12/02 00:33:06;;;;;;;;;;;;;;;0.05;58.89;99221.64;1746146;82;20182;-59
2021/12/02 00:35:34;;;;;;;;;;;;;;;0.09;59.17;99216.28;1746094;82;20150;-58
2021/12/02 00:38:02;;;;;;;;;;;;;;;0.09;59.10;99214.94;1746231;82;20150;-58
2021/12/02 00:40:34;;;;;;;;;;;;;;;0.10;59.03;99211.23;1746365;82;20475;-58
2021/12/02 00:43:06;;;;;;;;;;;;;;;0.07;58.93;99199.44;1746028;82;20557;-59
2021/12/02 00:45:36;;;;;;;;;;;;;;;0.06;59.20;99196.91;1746092;82;20166;-58
2021/12/02 00:48:04;;;;;;;;;;;;;;;0.07;59.50;99190.52;1694120;82;20189;-58
2021/12/02 00:50:33;;;;;;;;;;;;;;;0.09;59.75;99181.77;1746071;82;20157;-59
2021/12/02 00:53:02;;;;;;;;;;;;;;;0.09;59.78;99183.13;1746462;82;20162;-58
2021/12/02 00:55:30;;;;;;;;;;;;;;;0.07;59.73;99183.78;1746190;82;20226;-59
2021/12/02 00:57:58;;;;;;;;;;;;;;;0.01;59.96;99183.92;1746193;82;20185;-58
2021/12/02 01:00:26;;;;;;;;;;;;;;;-0.01;59.95;99169.75;1737937;82;20178;-60
2021/12/02 01:02:56;;;;;;;;;;;;;;;-0.01;60.18;99165.71;1737976;83;20150;-60
2021/12/02 01:05:25;;;;;;;;;;;;;;;-0.03;60.50;99154.25;1738066;83;20214;-60
2021/12/02 01:07:53;;;;;;;;;;;;;;;-0.06;60.57;99160.81;1737797;83;20162;-58
2021/12/02 01:10:21;;;;;;;;;;;;;;;-0.05;60.82;99154.92;1737980;83;20194;-58
2021/12/02 01:12:50;;;;;;;;;;;;;;;-0.06;61.14;99146.50;1738209;83;20147;-58
2021/12/02 01:15:20;;;;;;;;;;;;;;;-0.04;61.31;99145.84;1737900;82;20502;-58
2021/12/02 01:17:48;;;;;;;;;;;;;;;-0.04;61.51;99129.19;1737934;82;20186;-59
2021/12/02 01:20:16;;;;;;;;;;;;;;;-0.02;61.85;99126.33;1738068;83;20217;-58
2021/12/02 01:22:48;;;;;;;;;;;;;;;0.01;61.96;99119.31;1738065;83;20158;-58
2021/12/02 01:25:17;;;;;;;;;;;;;;;0.02;62.10;99118.80;1737891;82;20218;-59
2021/12/02 01:27:47;;;;;;;;;;;;;;;0.05;62.31;99111.75;1738472;83;20193;-59
2021/12/02 01:30:15;;;;;;;;;;;;;;;0.06;62.42;99115.63;1738059;82;20530;-58
2021/12/02 01:32:44;;;;;;;;;;;;;;;0.08;62.50;99108.73;1737928;83;20178;-58
2021/12/02 01:35:14;;;;;;;;;;;;;;;0.09;62.54;99111.77;1738029;83;20190;-58
2021/12/02 01:37:45;;;;;;;;;;;;;;;0.08;62.73;99111.42;1737889;83;20154;-59
2021/12/02 01:40:13;;;;;;;;;;;;;;;0.10;62.96;99108.91;1737986;82;20238;-57
2021/12/02 01:42:42;;;;;;;;;;;;;;;0.11;63.06;99106.55;1737946;83;20162;-59
2021/12/02 01:45:10;;;;;;;;;;;;;;;0.11;63.28;99107.91;1717174;83;20178;-58
2021/12/02 01:47:38;;;;;;;;;;;;;;;0.13;63.32;99100.50;1738309;82;20547;-58
2021/12/02 01:50:07;;;;;;;;;;;;;;;0.12;63.38;99094.78;1693987;83;20162;-59
2021/12/02 01:52:35;;;;;;;;;;;;;;;0.12;63.52;99096.13;1693695;83;20206;-58
2021/12/02 01:55:12;;;;;;;;;;;;;;;0.14;63.51;99100.84;1738333;83;20448;-58
2021/12/02 01:57:42;;;;;;;;;;;;;;;0.16;63.64;99092.60;1737809;82;20270;-60
2021/12/02 02:00:17;;;;;;;;;;;;;;;0.21;63.70;99088.41;1737858;82;20218;-59
2021/12/02 02:02:45;;;;;;;;;;;;;;;0.22;63.66;99073.94;1737879;82;20155;-63
2021/12/02 02:05:16;;;;;;;;;;;;;;;0.24;63.77;99083.20;1737956;83;20178;-57
2021/12/02 02:07:51;;;;;;;;;;;;;;;0.24;63.87;99079.16;1738095;83;20475;-58
2021/12/02 02:10:19;;;;;;;;;;;;;;;0.24;64.03;99082.70;1737923;83;20139;-59
2021/12/02 02:12:48;;;;;;;;;;;;;;;0.24;64.15;99077.81;1737949;83;20182;-58
2021/12/02 02:15:17;;;;;;;;;;;;;;;0.26;64.21;99077.98;1737872;83;20158;-59
2021/12/02 02:17:55;;;;;;;;;;;;;;;0.28;64.35;99073.78;1738369;83;20189;-58
2021/12/02 02:20:18;;;;;;;;;;;;;;;0.31;64.44;99070.25;1737233;82;20158;-59
2021/12/02 02:22:46;;;;;;;;;;;;;;;0.34;64.61;99077.66;1737778;83;20189;-59
2021/12/02 02:25:15;;;;;;;;;;;;;;;0.36;64.65;99072.45;1738070;83;20158;-59
2021/12/02 02:27:45;;;;;;;;;;;;;;;0.37;64.76;99073.30;1717214;83;20213;-59
2021/12/02 02:30:13;;;;;;;;;;;;;;;0.40;64.86;99078.35;1738025;83;20210;-58
2021/12/02 02:32:41;;;;;;;;;;;;;;;0.41;64.92;99071.45;1738191;82;20154;-59
2021/12/02 02:35:10;;;;;;;;;;;;;;;0.44;65.00;99084.59;1738354;83;20178;-59
2021/12/02 02:37:38;;;;;;;;;;;;;;;0.46;65.09;99083.08;1738127;82;20170;-58
2021/12/02 02:40:09;;;;;;;;;;;;;;;0.43;65.16;99068.59;1737942;83;20162;-59
2021/12/02 02:42:38;;;;;;;;;;;;;;;0.46;65.39;99076.34;1737947;83;20158;-59
2021/12/02 02:45:08;;;;;;;;;;;;;;;0.48;65.44;99069.78;1738169;83;20162;-58
2021/12/02 02:47:37;;;;;;;;;;;;;;;0.52;65.46;99064.39;1738010;83;20179;-59
2021/12/02 02:50:06;;;;;;;;;;;;;;;0.57;65.42;99055.81;1717270;83;20201;-59
2021/12/02 02:52:35;;;;;;;;;;;;;;;0.58;65.46;99061.54;1717186;83;20456;-58
2021/12/02 02:55:03;;;;;;;;;;;;;;;0.60;65.50;99062.22;1737748;83;20566;-59
2021/12/02 02:57:39;;;;;;;;;;;;;;;0.60;65.49;99063.56;1738035;83;20178;-58
2021/12/02 03:00:14;;;;;;;;;;;;;;;0.59;65.65;99060.53;1741710;82;20158;-58
2021/12/02 03:05:26;;;;;;;;;;;;;;;0.59;65.83;99049.75;1746249;82;20157;-60
2021/12/02 03:08:09;;;;;;;;;;;;;;;0.60;66.00;99042.84;1746140;82;20210;-59
2021/12/02 03:10:43;;;;;;;;;;;;;;;0.60;66.03;99044.19;1742983;82;20201;-59
2021/12/02 03:13:11;;;;;;;;;;;;;;;0.61;66.16;99043.69;1744804;82;20182;-58
2021/12/02 03:18:18;;;;;;;;;;;;;;;0.60;66.39;99042.84;1722371;82;20209;-59
2021/12/02 03:20:47;;;;;;;;;;;;;;;0.62;66.53;99036.78;1746068;82;20239;-58
2021/12/02 03:23:15;;;;;;;;;;;;;;;0.68;66.55;99044.73;1746177;82;20219;-59
2021/12/02 03:25:46;;;;;;;;;;;;;;;0.68;66.59;99038.00;1746276;82;20214;-60
2021/12/02 03:28:14;;;;;;;;;;;;;;;0.71;66.69;99024.69;1746075;82;20217;-59
2021/12/02 03:30:44;;;;;;;;;;;;;;;0.72;66.60;99024.52;1746496;82;20226;-58
2021/12/02 03:33:12;;;;;;;;;;;;;;;0.73;66.70;99022.16;1746192;82;20245;-60
2021/12/02 03:35:42;;;;;;;;;;;;;;;0.75;66.72;99018.79;1745931;82;20162;-59
2021/12/02 03:38:12;;;;;;;;;;;;;;;0.76;66.66;99011.04;1716119;84;20152;-60
2021/12/02 03:40:40;;;;;;;;;;;;;;;0.78;66.69;99011.71;1716480;84;20168;-58
2021/12/02 03:43:09;;;;;;;;;;;;;;;0.78;66.75;99002.78;1688520;84;20232;-58
2021/12/02 03:45:39;;;;;;;;;;;;;;;0.77;66.84;99001.94;1714376;84;20199;-59
2021/12/02 03:48:07;;;;;;;;;;;;;;;0.79;66.75;99001.27;1702512;83;20210;-58
2021/12/02 03:50:36;;;;;;;;;;;;;;;0.81;66.83;99000.59;1728956;83;20525;-59
2021/12/02 03:53:04;;;;;;;;;;;;;;;0.81;66.85;98991.16;1728934;83;20194;-59
2021/12/02 03:55:32;;;;;;;;;;;;;;;0.83;66.93;98993.67;1728884;83;20187;-58
2021/12/02 03:58:01;;;;;;;;;;;;;;;0.83;66.86;98981.05;1729242;83;20178;-59
2021/12/02 04:00:30;;;;;;;;;;;;;;;0.84;66.93;98982.72;1728757;83;20254;-59
2021/12/02 04:03:00;;;;;;;;;;;;;;;0.85;66.88;98980.88;1733890;83;20198;-57
2021/12/02 04:05:29;;;;;;;;;;;;;;;0.86;66.93;98974.47;1733868;82;20179;-59
2021/12/02 04:07:57;;;;;;;;;;;;;;;0.88;66.92;98973.28;1733880;83;20154;-59
2021/12/02 04:10:27;;;;;;;;;;;;;;;0.89;66.90;98968.73;1733893;83;20162;-58
2021/12/02 04:13:15;;;;;;;;;;;;;;;0.87;66.83;98964.86;1734258;82;20190;-59
2021/12/02 04:15:44;;;;;;;;;;;;;;;0.86;66.94;98967.22;1733442;83;20158;-59
2021/12/02 04:18:12;;;;;;;;;;;;;;;0.87;66.93;98970.25;1733788;83;20194;-59
2021/12/02 04:20:40;;;;;;;;;;;;;;;0.87;66.94;98970.25;1733756;83;20170;-57
2021/12/02 04:23:08;;;;;;;;;;;;;;;0.89;67.00;98961.98;1733793;83;20254;-58
2021/12/02 04:25:37;;;;;;;;;;;;;;;0.90;66.96;98960.47;1733834;83;20225;-58
2021/12/02 04:28:05;;;;;;;;;;;;;;;0.91;66.95;98959.45;1733846;83;20198;-59
2021/12/02 04:30:34;;;;;;;;;;;;;;;0.94;66.95;98949.68;1733975;83;20190;-58
2021/12/02 04:33:02;;;;;;;;;;;;;;;0.96;66.88;98956.25;1734082;82;20550;-59
2021/12/02 04:35:31;;;;;;;;;;;;;;;0.97;66.97;98941.75;1733796;83;20198;-58
2021/12/02 04:37:59;;;;;;;;;;;;;;;0.98;66.90;98943.94;1733764;83;20500;-58
2021/12/02 04:40:28;;;;;;;;;;;;;;;1.00;66.91;98945.95;1733711;83;20218;-58
2021/12/02 04:42:56;;;;;;;;;;;;;;;1.00;66.96;98936.52;1733535;83;20194;-60
2021/12/02 04:45:25;;;;;;;;;;;;;;;1.04;66.88;98937.35;1733791;83;20159;-59
2021/12/02 04:47:53;;;;;;;;;;;;;;;1.08;66.97;98937.84;1733923;82;20207;-58
2021/12/02 04:50:21;;;;;;;;;;;;;;;1.11;66.95;98924.02;1733738;83;20159;-58
2021/12/02 04:52:52;;;;;;;;;;;;;;;1.15;66.94;98932.09;1733772;83;20196;-59
2021/12/02 04:55:21;;;;;;;;;;;;;;;1.20;66.91;98940.50;1733819;83;20158;-59
2021/12/02 04:57:49;;;;;;;;;;;;;;;1.23;66.85;98937.45;1733720;83;20198;-58
2021/12/02 05:00:17;;;;;;;;;;;;;;;1.24;66.67;98945.38;1731436;82;20170;-58
2021/12/02 05:02:46;;;;;;;;;;;;;;;1.26;66.68;98943.34;1728317;83;20158;-58
2021/12/02 05:05:15;;;;;;;;;;;;;;;1.27;66.74;98936.94;1728653;83;20166;-58
2021/12/02 05:07:44;;;;;;;;;;;;;;;1.29;66.73;98911.13;1728309;83;20210;-59
2021/12/02 05:10:14;;;;;;;;;;;;;;;1.33;66.80;98915.70;1728445;83;20174;-59
2021/12/02 05:12:42;;;;;;;;;;;;;;;1.34;66.75;98913.34;1727974;83;20167;-59
2021/12/02 05:15:10;;;;;;;;;;;;;;;1.38;66.73;98907.41;1728615;83;20218;-58
2021/12/02 05:17:39;;;;;;;;;;;;;;;1.42;66.75;98906.05;1728695;83;20246;-58
2021/12/02 05:20:08;;;;;;;;;;;;;;;1.44;66.69;98904.52;1728309;83;20179;-59
2021/12/02 05:22:38;;;;;;;;;;;;;;;1.44;66.65;98909.41;1728161;83;20258;-59
2021/12/02 05:25:07;;;;;;;;;;;;;;;1.44;66.72;98909.41;1728190;83;20170;-59
2021/12/02 05:27:37;;;;;;;;;;;;;;;1.45;66.74;98909.73;1728519;83;20171;-59
2021/12/02 05:30:07;;;;;;;;;;;;;;;1.47;66.78;98900.95;1728330;83;20151;-59
2021/12/02 05:32:35;;;;;;;;;;;;;;;1.52;66.84;98915.27;1727943;83;20230;-58
2021/12/02 05:35:07;;;;;;;;;;;;;;;1.55;66.87;98907.66;1728297;83;20183;-59
2021/12/02 05:37:35;;;;;;;;;;;;;;;1.58;66.85;98924.01;1728477;83;20154;-59
2021/12/02 05:40:06;;;;;;;;;;;;;;;1.61;66.82;98915.56;1728644;83;20547;-59
2021/12/02 05:42:35;;;;;;;;;;;;;;;1.63;66.78;98910.83;1728142;83;20155;-59
2021/12/02 05:45:04;;;;;;;;;;;;;;;1.66;66.79;98915.88;1728266;83;20218;-59
2021/12/02 05:47:34;;;;;;;;;;;;;;;1.69;66.75;98910.63;1728274;83;20239;-59
2021/12/02 05:50:02;;;;;;;;;;;;;;;1.73;66.76;98920.05;1728147;83;20202;-59
2021/12/02 05:52:30;;;;;;;;;;;;;;;1.75;66.73;98917.50;1728556;83;20265;-60
2021/12/02 05:54:59;;;;;;;;;;;;;;;1.77;66.75;98926.77;1728214;83;20198;-59
2021/12/02 05:57:27;;;;;;;;;;;;;;;1.79;66.72;98932.84;1728485;83;20473;-60
2021/12/02 05:59:55;;;;;;;;;;;;;;;1.79;66.74;98930.98;1728607;82;20640;-60
2021/12/02 06:02:23;;;;;;;;;;;;;;;1.81;66.70;98927.59;1731510;83;20463;-60
2021/12/02 06:04:52;;;;;;;;;;;;;;;1.84;66.64;98923.70;1731404;83;20202;-59
2021/12/02 06:07:21;;;;;;;;;;;;;;;1.85;66.62;98930.27;1731366;83;20249;-58
2021/12/02 06:09:52;;;;;;;;;;;;;;;1.86;66.70;98930.59;1668740;86;20190;-58
2021/12/02 06:12:19;;;;;;;;;;;;;;;1.88;66.77;98932.61;1731620;83;20213;-58
2021/12/02 06:14:47;;;;;;;;;;;;;;;1.91;66.75;98927.36;1731207;83;20146;-60
2021/12/02 06:17:16;;;;;;;;;;;;;;;1.93;66.78;98913.17;1731798;83;20222;-59
2021/12/02 06:19:44;;;;;;;;;;;;;;;1.97;66.80;98921.78;1731412;83;20191;-60
2021/12/02 06:22:14;;;;;;;;;;;;;;;2.01;66.86;98919.90;1731279;83;20277;-59
2021/12/02 06:25:05;;;;;;;;;;;;;;;2.04;66.84;98917.34;1731504;83;20522;-61
2021/12/02 06:27:17;;;;;;;;;;;;;;;2.08;66.76;98916.81;1730762;83;20219;-60
2021/12/02 06:29:46;;;;;;;;;;;;;;;2.11;66.71;98923.71;1731354;83;20150;-59
2021/12/02 06:32:14;;;;;;;;;;;;;;;2.13;66.73;98918.45;1731325;83;20159;-59
2021/12/02 06:34:44;;;;;;;;;;;;;;;2.15;66.78;98908.31;1731278;83;20516;-60
2021/12/02 06:37:12;;;;;;;;;;;;;;;2.17;66.76;98919.78;1731673;83;20194;-59
2021/12/02 06:39:41;;;;;;;;;;;;;;;2.20;66.84;98910.47;1731480;83;20220;-61
2021/12/02 06:42:11;;;;;;;;;;;;;;;2.21;66.82;98904.05;1731327;83;20254;-59
2021/12/02 06:44:39;;;;;;;;;;;;;;;2.25;66.87;98916.69;1731390;83;20262;-59
2021/12/02 06:47:08;;;;;;;;;;;;;;;2.29;66.88;98914.79;1731330;83;20170;-61
2021/12/02 06:49:38;;;;;;;;;;;;;;;2.32;66.79;98909.02;1731283;83;20175;-59
2021/12/02 06:52:12;;;;;;;;;;;;;;;2.36;66.70;98912.20;1731612;83;20214;-60
2021/12/02 06:54:40;;;;;;;;;;;;;;;2.38;66.82;98906.10;1731256;83;20226;-59
2021/12/02 06:57:08;;;;;;;;;;;;;;;2.40;66.80;98908.11;1731380;83;20210;-59
2021/12/02 06:59:40;;;;;;;;;;;;;;;2.42;66.83;98907.41;1731281;83;20525;-60
2021/12/02 07:02:08;;;;;;;;;;;;;;;2.43;66.87;98905.05;1731396;83;20202;-58
2021/12/02 07:04:37;;;;;;;;;;;;;;;2.48;66.82;98908.04;1731397;83;20492;-60
2021/12/02 07:07:07;;;;;;;;;;;;;;;2.50;66.72;98906.83;1731357;83;20158;-59
2021/12/02 07:09:35;;;;;;;;;;;;;;;2.50;66.58;98909.53;1731513;83;20242;-60
2021/12/02 07:12:05;;;;;;;;;;;;;;;2.52;66.76;98910.20;1731581;83;20221;-60
2021/12/02 07:14:33;;;;;;;;;;;;;;;2.56;66.83;98910.67;1731390;83;20206;-61
2021/12/02 07:17:03;;;;;;;;;;;;;;;2.59;66.74;98909.46;1731602;83;20469;-59
2021/12/02 07:19:38;;;;;;;;;;;;;;;2.63;66.73;98896.78;1731319;83;20465;-60
2021/12/02 07:22:03;;;;;;;;;;;;;;;2.65;66.52;98906.89;1731446;83;20225;-60
2021/12/02 07:24:31;;;;;;;;;;;;;;;2.68;66.35;98895.71;1668782;86;20484;-59
2021/12/02 07:27:03;;;;;;;;;;;;;;;2.71;66.47;98898.05;1730723;83;20155;-60
2021/12/02 07:29:32;;;;;;;;;;;;;;;2.73;66.42;98897.86;1731465;83;20162;-60
2021/12/02 07:32:03;;;;;;;;;;;;;;;2.75;66.46;98902.06;1731426;83;20197;-60
2021/12/02 07:34:37;;;;;;;;;;;;;;;2.77;66.54;98893.25;1731468;83;20151;-60
2021/12/02 07:37:06;;;;;;;;;;;;;;;2.82;66.55;98894.89;1731610;83;20151;-60
2021/12/02 07:39:34;;;;;;;;;;;;;;;2.84;66.41;98911.77;1731645;83;20167;-60
2021/12/02 07:42:05;;;;;;;;;;;;;;;2.85;66.45;98909.39;1669395;85;20163;-59
2021/12/02 07:44:35;;;;;;;;;;;;;;;2.92;66.46;98901.89;1731393;83;20171;-60
2021/12/02 07:47:04;;;;;;;;;;;;;;;2.96;66.40;98894.57;1731429;83;20218;-63
2021/12/02 07:49:32;;;;;;;;;;;;;;;3.04;66.46;98912.58;1731405;83;20234;-61
2021/12/02 07:52:00;;;;;;;;;;;;;;;3.08;66.37;98912.53;1731368;83;20194;-60
2021/12/02 07:54:31;;;;;;;;;;;;;;;3.12;66.43;98909.78;1731345;83;20163;-59
2021/12/02 07:56:59;;;;;;;;;;;;;;;3.17;66.25;98910.05;1731338;83;20236;-59
2021/12/02 07:59:27;;;;;;;;;;;;;;;3.18;66.17;98908.52;1731620;83;20170;-60
2021/12/02 08:02:00;;;;;;;;;;;;;;;3.21;66.03;98911.87;1731331;83;20469;-58
2021/12/02 08:04:25;;;;;;;;;;;;;;;3.21;65.97;98912.72;1731234;83;20218;-59
2021/12/02 08:06:54;;;;;;;;;;;;;;;3.22;66.04;98914.91;1731541;83;20182;-60
2021/12/02 08:09:23;;;;;;;;;;;;;;;3.24;66.22;98911.50;1731176;83;20247;-60
2021/12/02 08:11:51;;;;;;;;;;;;;;;3.28;66.24;98918.25;1731694;83;20456;-59
2021/12/02 08:14:20;;;;;;;;;;;;;;;3.33;66.15;98915.82;1731284;83;20691;-60
2021/12/02 08:16:48;;;;;;;;;;;;;;;3.35;66.12;98914.61;1731203;83;20221;-60
2021/12/02 08:19:19;;;;;;;;;;;;;;;3.38;66.02;98919.64;1731396;83;20198;-59
2021/12/02 08:21:48;;;;;;;;;;;;;;;3.43;66.10;98919.08;1731416;83;20179;-59
2021/12/02 08:24:21;;;;;;;;;;;;;;;3.47;66.19;98921.22;1731265;83;20197;-59
2021/12/02 08:26:47;;;;;;;;;;;;;;;3.52;66.16;98914.40;1731468;83;20162;-59
2021/12/02 08:29:17;;;;;;;;;;;;;;;3.55;66.19;98920.28;1731456;83;20178;-59
2021/12/02 08:31:45;;;;;;;;;;;;;;;3.60;66.13;98918.35;1731518;83;20262;-60
2021/12/02 08:34:15;;;;;;;;;;;;;;;3.63;66.10;98924.23;1731276;83;20213;-60
2021/12/02 08:36:51;;;;;;;;;;;;;;;3.66;66.03;98920.30;1731054;83;20182;-61
2021/12/02 08:39:18;;;;;;;;;;;;;;;3.69;66.03;98907.73;1731213;83;20219;-59
2021/12/02 08:41:48;;;;;;;;;;;;;;;3.74;66.10;98905.30;1731375;83;20246;-60
2021/12/02 08:44:17;;;;;;;;;;;;;;;3.78;65.99;98903.88;1731377;83;20178;-59
2021/12/02 08:46:48;;;;;;;;;;;;;;;3.82;65.91;98899.77;1731287;83;20508;-59
2021/12/02 08:49:17;;;;;;;;;;;;;;;3.82;65.77;98901.11;1731410;83;20146;-59
2021/12/02 08:51:45;;;;;;;;;;;;;;;3.83;65.74;98902.28;1731400;83;20154;-59
2021/12/02 08:54:14;;;;;;;;;;;;;;;3.86;65.78;98908.34;1731215;83;20214;-60
2021/12/02 08:56:42;;;;;;;;;;;;;;;3.87;65.94;98899.19;1731372;83;20483;-59
2021/12/02 08:59:11;;;;;;;;;;;;;;;3.87;66.01;98894.61;1731330;83;20245;-61
2021/12/02 09:01:39;;;;;;;;;;;;;;;3.92;66.22;98898.13;1703855;83;20213;-59
2021/12/02 09:04:08;;;;;;;;;;;;;;;3.96;66.42;98890.78;1689918;84;20584;-59
2021/12/02 09:06:37;;;;;;;;;;;;;;;4.01;66.48;98889.69;1687309;84;20372;-61
2021/12/02 09:09:06;;;;;;;;;;;;;;;4.04;66.42;98892.52;1702592;84;20189;-59
2021/12/02 09:11:38;;;;;;;;;;;;;;;4.04;66.23;98885.23;1694385;84;20511;-61
2021/12/02 09:14:09;;;;;;;;;;;;;;;4.02;66.47;98890.52;1693788;84;20190;-60
2021/12/02 09:16:40;;;;;;;;;;;;;;;4.02;66.61;98885.10;1703139;84;20208;-60
2021/12/02 09:19:10;;;;;;;;;;;;;;;4.06;66.69;98880.45;1711367;84;20216;-61
2021/12/02 09:21:38;;;;;;;;;;;;;;;4.09;66.60;98877.36;1702007;84;20257;-61
2021/12/02 09:24:06;;;;;;;;;;;;;;;4.12;66.69;98886.46;1698842;83;20158;-60
2021/12/02 09:26:34;;;;;;;;;;;;;;;4.17;66.76;98876.91;1698610;83;20570;-61
2021/12/02 09:29:03;;;;;;;;;;;;;;;4.18;66.74;98876.72;1690728;84;20191;-60
2021/12/02 09:31:32;;;;;;;;;;;;;;;4.21;66.78;98874.97;1670780;86;20220;-61
2021/12/02 09:34:02;;;;;;;;;;;;;;;4.23;66.87;98875.62;1671000;86;20164;-60
2021/12/02 09:36:32;;;;;;;;;;;;;;;4.25;66.96;98878.13;1671063;86;20204;-62
2021/12/02 09:39:00;;;;;;;;;;;;;;;4.26;66.92;98874.39;1670948;86;20252;-60
2021/12/02 09:41:28;;;;;;;;;;;;;;;4.27;67.16;98872.00;1671175;86;20544;-61
2021/12/02 09:43:56;;;;;;;;;;;;;;;4.31;67.18;98865.15;1671111;86;20228;-61
2021/12/02 09:46:26;;;;;;;;;;;;;;;4.35;67.24;98859.66;1671101;86;20466;-59
2021/12/02 09:48:55;;;;;;;;;;;;;;;4.38;67.30;98868.76;1671120;86;20267;-60
2021/12/02 09:51:26;;;;;;;;;;;;;;;4.40;67.21;98868.88;1670862;86;20483;-62
2021/12/02 09:54:04;;;;;;;;;;;;;;;4.40;67.21;98864.81;1670527;86;20176;-60
2021/12/02 09:56:28;;;;;;;;;;;;;;;4.42;67.21;98855.97;1669876;86;20204;-62
2021/12/02 09:59:03;;;;;;;;;;;;;;;4.45;67.21;98852.87;1671222;86;20219;-60
2021/12/02 10:01:39;;;;;;;;;;;;;;;4.50;67.26;98854.98;1676053;84;20222;-61
2021/12/02 10:04:02;;;;;;;;;;;;;;;4.53;67.35;98845.10;1691667;85;20449;-61
2021/12/02 10:06:32;;;;;;;;;;;;;;;4.58;67.37;98847.25;1693470;85;20162;-60
2021/12/02 10:09:11;;;;;;;;;;;;;;;4.60;67.25;98846.53;1693675;85;20174;-60
2021/12/02 10:11:56;;;;;;;;;;;;;;;4.61;67.24;98842.27;1693726;85;20522;-61
2021/12/02 10:14:34;;;;;;;;;;;;;;;4.63;67.38;98844.27;1693772;85;20445;-61
2021/12/02 10:17:24;;;;;;;;;;;;;;;4.66;67.36;98841.16;1693131;85;20297;-60
2021/12/02 10:20:18;;;;;;;;;;;;;;;4.68;67.40;98842.31;1695135;83;20189;-60
2021/12/02 10:22:42;;;;;;;;;;;;;;;4.70;67.38;98845.15;1721307;83;20203;-61
2021/12/02 10:25:11;;;;;;;;;;;;;;;4.72;67.40;98837.66;1722231;83;20276;-61
2021/12/02 10:27:47;;;;;;;;;;;;;;;4.74;67.50;98843.72;1722320;83;20191;-61
2021/12/02 10:30:22;;;;;;;;;;;;;;;4.75;67.47;98830.99;1700196;83;20203;-61
2021/12/02 10:32:51;;;;;;;;;;;;;;;4.77;67.47;98824.84;1722613;83;20212;-61
2021/12/02 10:35:45;;;;;;;;;;;;;;;4.80;67.50;98822.25;1722365;83;20148;-59
2021/12/02 10:38:41;;;;;;;;;;;;;;;4.81;67.47;98829.36;1722456;83;20204;-61
2021/12/02 10:41:21;;;;;;;;;;;;;;;4.84;67.26;98827.60;1721968;83;20280;-60
2021/12/02 10:44:16;;;;;;;;;;;;;;;4.88;67.34;98827.52;1722541;83;20220;-62
2021/12/02 10:46:53;;;;;;;;;;;;;;;4.92;67.35;98838.30;1722470;83;20159;-62
2021/12/02 10:49:24;;;;;;;;;;;;;;;4.94;67.27;98830.27;1720477;83;20160;-60
2021/12/02 10:51:55;;;;;;;;;;;;;;;4.98;67.27;98833.42;1722083;83;20287;-60
2021/12/02 10:54:29;;;;;;;;;;;;;;;4.99;67.08;98831.87;1722289;83;20187;-61
2021/12/02 10:56:59;;;;;;;;;;;;;;;4.99;67.01;98829.67;1722410;83;20183;-62
2021/12/02 10:59:45;;;;;;;;;;;;;;;5.00;67.08;98816.42;1722082;83;20283;-62
2021/12/02 11:02:29;;;;;;;;;;;;;;;5.02;67.11;98811.63;1722385;83;20589;-62
2021/12/02 11:05:04;;;;;;;;;;;;;;;5.03;67.18;98803.80;1722660;83;20168;-61
2021/12/02 11:07:39;;;;;;;;;;;;;;;5.06;67.06;98801.52;1722415;83;20477;-60
2021/12/02 11:10:13;;;;;;;;;;;;;;;5.08;67.12;98799.97;1722577;83;20251;-60
2021/12/02 11:12:46;;;;;;;;;;;;;;;5.12;67.09;98804.47;1722221;83;20203;-60
2021/12/02 11:15:23;;;;;;;;;;;;;;;5.13;67.00;98792.57;1722747;83;20481;-60
2021/12/02 11:17:53;;;;;;;;;;;;;;;5.15;66.94;98791.33;1715397;83;20251;-61
2021/12/02 11:20:39;;;;;;;;;;;;;;;5.17;66.96;98787.89;1694144;83;20228;-60
2021/12/02 11:23:09;;;;;;;;;;;;;;;5.18;66.95;98790.09;1693717;84;20250;-61
2021/12/02 11:25:40;;;;;;;;;;;;;;;5.21;67.17;98787.84;1693718;85;20529;-61
2021/12/02 11:28:08;;;;;;;;;;;;;;;5.24;66.95;98792.86;1693525;85;20260;-61
2021/12/02 11:30:37;;;;;;;;;;;;;;;5.26;66.83;98787.23;1693547;85;20198;-60
2021/12/02 11:33:08;;;;;;;;;;;;;;;5.29;66.77;98784.11;1689660;85;20158;-59
2021/12/02 11:35:42;;;;;;;;;;;;;;;5.31;66.66;98777.95;1693348;85;20512;-57
2021/12/02 11:38:17;;;;;;;;;;;;;;;5.33;66.67;98775.87;1693356;85;20174;-60
2021/12/02 11:40:47;;;;;;;;;;;;;;;5.33;66.74;98777.23;1693618;85;20190;-60
2021/12/02 11:43:18;;;;;;;;;;;;;;;5.35;66.73;98769.19;1693517;85;20532;-60
2021/12/02 11:45:47;;;;;;;;;;;;;;;5.40;67.08;98775.37;1693140;85;20266;-61
2021/12/02 11:48:19;;;;;;;;;;;;;;;5.44;66.49;98779.88;1693530;85;20205;-62
2021/12/02 11:50:50;;;;;;;;;;;;;;;5.42;66.45;98786.87;1693758;85;20167;-60
2021/12/02 11:53:21;;;;;;;;;;;;;;;5.43;66.59;98792.61;1693225;85;20233;-61
2021/12/02 11:55:54;;;;;;;;;;;;;;;5.43;66.54;98781.75;1693434;85;20476;-59
2021/12/02 11:58:22;;;;;;;;;;;;;;;5.44;66.41;98786.66;1693483;85;20289;-60
2021/12/02 12:00:51;;;;;;;;;;;;;;;5.43;66.70;98779.03;1693395;85;20163;-60
2021/12/02 12:03:39;;;;;;;;;;;;;;;5.43;66.56;98774.13;1684927;85;20210;-60
2021/12/02 12:06:08;;;;;;;;;;;;;;;5.41;66.61;98766.18;1682773;85;20222;-61
2021/12/02 12:08:39;;;;;;;;;;;;;;;5.41;66.64;98772.97;1682532;85;20179;-61
2021/12/02 12:11:28;;;;;;;;;;;;;;;5.43;66.90;98763.26;1683121;85;20269;-62
2021/12/02 12:14:08;;;;;;;;;;;;;;;5.44;66.69;98773.92;1682723;85;20159;-61
2021/12/02 12:16:38;;;;;;;;;;;;;;;5.43;66.61;98770.05;1682964;85;20489;-61
2021/12/02 12:19:32;;;;;;;;;;;;;;;5.43;66.62;98778.20;1687356;84;20203;-61
2021/12/02 12:22:02;;;;;;;;;;;;;;;5.43;66.60;98779.55;1694416;84;20234;-59
2021/12/02 12:24:45;;;;;;;;;;;;;;;5.44;66.55;98777.99;1689689;84;20227;-62
2021/12/02 12:27:16;;;;;;;;;;;;;;;5.43;66.50;98776.84;1701945;84;20517;-61
2021/12/02 12:29:47;;;;;;;;;;;;;;;5.40;66.55;98772.13;1687275;84;20235;-60
2021/12/02 12:35:07;;;;;;;;;;;;;;;5.43;66.59;98779.03;1529592;92;20204;-60
2021/12/02 12:37:48;;;;;;;;;;;;;;;5.41;66.57;98769.73;1551292;92;20221;-61
2021/12/02 13:02:13;;;;;;;;;;;;;;;5.47;66.86;98775.39;1720580;80;20283;-68
2021/12/02 13:04:54;;;;;;;;;;;;;;;5.48;67.09;98786.56;1722771;82;20222;-65
2021/12/02 13:07:25;;;;;;;;;;;;;;;5.43;66.91;98783.11;1734530;82;20174;-65
2021/12/02 13:10:00;;;;;;;;;;;;;;;5.40;66.99;98794.38;1752741;81;20148;-64
2021/12/02 13:12:57;;;;;;;;;;;;;;;5.36;66.97;98792.59;1760667;81;20156;-65
2021/12/02 15:47:13;;;;;;;;;;;;;;;4.72;70.35;98872.08;1777709;77;20216;-62
2021/12/02 15:49:49;;;;;;;;;;;;;;;4.70;70.57;98879.06;1733994;80;20206;-60
2021/12/02 15:52:12;;;;;;;;;;;;;;;4.68;70.65;98884.36;1694615;83;20220;-60
2021/12/02 15:54:40;;;;;;;;;;;;;;;4.65;70.82;98882.05;1721151;82;20154;-62
2021/12/02 15:57:09;;;;;;;;;;;;;;;4.62;70.88;98876.50;1715495;84;20231;-63
2021/12/02 15:59:38;;;;;;;;;;;;;;;4.61;70.94;98881.59;1721101;83;20459;-62
2021/12/02 16:03:12;;;;;;;;;;;;;;;4.60;71.06;98892.12;1715513;84;20215;-60
2021/12/02 16:04:53;;;;;;;;;;;;;;;4.57;71.21;98889.81;1690271;83;20194;-61
2021/12/02 16:07:23;;;;;;;;;;;;;;;4.57;71.25;98891.16;1709105;84;20184;-62
2021/12/02 16:10:02;;;;;;;;;;;;;;;4.59;71.33;98896.39;1692753;84;20264;-60
2021/12/02 16:12:30;;;;;;;;;;;;;;;4.59;71.34;98895.87;1679619;85;20194;-62
2021/12/02 16:15:03;;;;;;;;;;;;;;;4.59;71.39;98892.33;1693161;85;20502;-65
2021/12/02 16:17:33;;;;;;;;;;;;;;;4.56;71.41;98903.56;1709613;84;20518;-63
2021/12/02 16:22:46;;;;;;;;;;;;;;;4.55;71.63;98905.44;1674402;85;20296;-61